Time;durP1;ratioP1;P1;durP2;ratioP2;P2;SDS_P1;SDS_P2;PMS_P1;PMS_P2;Temp;Humidity;BMP_temperature;BMP_pressure;BME280_temperature;BME280_humidity;BME280_pressure;Samples;Min_cycle;Max_cycle;Signal;HPM_P1;HPM_P2
2021/01/29 00:01:14;;;;;;;16.77;11.53;;;2.20;99.90;;;;;;5057254;28;20276;-64
2021/01/29 00:03:39;;;;;;;20.23;11.97;;;2.20;99.90;;;;;;5036220;28;20292;-64
2021/01/29 00:06:05;;;;;;;17.30;10.70;;;2.20;99.90;;;;;;5065325;28;20198;-63
2021/01/29 00:08:33;;;;;;;17.93;10.53;;;2.20;99.90;;;;;;5035186;28;20188;-64
2021/01/29 00:11:00;;;;;;;16.00;10.75;;;2.20;99.90;;;;;;5047924;28;20964;-64
2021/01/29 00:13:26;;;;;;;16.45;10.32;;;2.20;99.90;;;;;;5049429;28;20206;-64
2021/01/29 00:15:52;;;;;;;16.93;11.00;;;2.30;99.90;;;;;;5048112;28;20189;-64
2021/01/29 00:18:19;;;;;;;16.10;10.07;;;2.20;99.90;;;;;;5048765;28;20422;-63
2021/01/29 00:20:45;;;;;;;21.00;10.88;;;2.20;99.90;;;;;;5040939;28;20246;-64
2021/01/29 00:23:10;;;;;;;16.40;10.97;;;2.20;99.90;;;;;;5057554;28;20187;-64
2021/01/29 00:25:40;;;;;;;16.37;10.57;;;2.20;99.90;;;;;;5060700;28;20605;-64
2021/01/29 00:28:07;;;;;;;17.58;11.18;;;2.20;99.90;;;;;;5064238;28;20516;-65
2021/01/29 00:30:34;;;;;;;15.95;10.57;;;2.10;99.90;;;;;;5046357;28;20188;-64
2021/01/29 00:33:00;;;;;;;14.73;10.00;;;2.10;99.90;;;;;;5056723;28;20682;-64
2021/01/29 00:35:29;;;;;;;15.93;9.33;;;2.00;99.90;;;;;;5068988;28;20194;-64
2021/01/29 00:37:55;;;;;;;17.15;10.30;;;2.10;99.90;;;;;;5056235;28;20444;-64
2021/01/29 00:40:20;;;;;;;15.73;9.73;;;2.10;99.90;;;;;;5062160;28;20803;-64
2021/01/29 00:42:47;;;;;;;13.90;9.80;;;2.10;99.90;;;;;;5065645;28;20199;-65
2021/01/29 00:45:16;;;;;;;16.75;9.70;;;2.10;99.90;;;;;;5055581;28;20192;-63
2021/01/29 00:47:42;;;;;;;14.80;9.55;;;2.10;99.90;;;;;;5048278;28;20327;-63
2021/01/29 00:50:08;;;;;;;17.00;10.37;;;2.10;99.90;;;;;;5036611;28;20275;-63
2021/01/29 00:52:34;;;;;;;15.63;11.27;;;2.10;99.90;;;;;;5058014;28;20330;-63
2021/01/29 00:55:00;;;;;;;17.80;11.27;;;2.10;99.90;;;;;;5067853;28;20263;-63
2021/01/29 00:57:25;;;;;;;17.27;11.23;;;2.10;99.90;;;;;;5056137;28;20181;-64
2021/01/29 00:59:51;;;;;;;15.83;9.77;;;2.10;99.90;;;;;;5046751;28;20912;-63
2021/01/29 01:02:17;;;;;;;16.30;10.27;;;2.10;99.90;;;;;;5048554;28;20188;-64
2021/01/29 01:04:43;;;;;;;15.85;10.40;;;2.10;99.90;;;;;;5055709;28;20230;-64
2021/01/29 01:07:13;;;;;;;14.57;9.33;;;2.10;99.90;;;;;;5048658;28;20270;-64
2021/01/29 01:09:39;;;;;;;14.40;10.25;;;2.20;99.90;;;;;;5052236;28;20498;-63
2021/01/29 01:12:05;;;;;;;14.27;9.80;;;2.20;99.90;;;;;;5055602;28;20294;-64
2021/01/29 01:14:30;;;;;;;17.07;10.70;;;2.20;99.90;;;;;;5049071;28;20319;-64
2021/01/29 01:16:56;;;;;;;17.13;9.90;;;2.20;99.90;;;;;;5042607;28;21292;-64
2021/01/29 01:19:21;;;;;;;14.83;9.50;;;2.20;99.90;;;;;;5050685;28;20241;-64
2021/01/29 01:21:47;;;;;;;15.50;10.27;;;2.10;99.90;;;;;;5061096;28;20192;-63
2021/01/29 01:24:12;;;;;;;16.70;10.00;;;2.10;99.90;;;;;;5033891;28;20184;-63
2021/01/29 01:26:38;;;;;;;13.10;9.00;;;2.10;99.90;;;;;;5051824;28;20255;-63
2021/01/29 01:29:04;;;;;;;13.10;8.90;;;2.10;99.90;;;;;;5052754;28;20325;-64
2021/01/29 01:31:30;;;;;;;12.53;9.00;;;2.10;99.90;;;;;;5057170;28;20195;-63
2021/01/29 01:33:56;;;;;;;15.40;9.15;;;2.10;99.90;;;;;;5069771;28;20797;-64
2021/01/29 01:36:21;;;;;;;15.93;9.77;;;2.10;99.90;;;;;;5049735;28;20184;-64
2021/01/29 01:38:48;;;;;;;15.90;9.27;;;2.00;99.90;;;;;;5059374;28;20236;-64
2021/01/29 01:41:13;;;;;;;14.02;9.18;;;2.10;99.90;;;;;;5066267;28;20180;-65
2021/01/29 01:43:39;;;;;;;15.40;8.90;;;2.10;99.90;;;;;;5057418;28;20329;-63
2021/01/29 01:46:10;;;;;;;12.87;8.73;;;2.10;99.90;;;;;;5068143;28;20196;-63
2021/01/29 01:48:48;;;;;;;13.63;9.35;;;2.10;99.90;;;;;;5056202;28;20215;-64
2021/01/29 01:51:24;;;;;;;14.32;9.63;;;2.10;99.90;;;;;;5065833;28;20214;-63
2021/01/29 01:53:54;;;;;;;14.13;10.30;;;2.00;99.90;;;;;;5045876;28;20180;-63
2021/01/29 01:56:36;;;;;;;14.23;9.38;;;2.00;99.90;;;;;;5068894;28;20267;-64
2021/01/29 01:59:06;;;;;;;12.23;8.35;;;2.00;99.90;;;;;;5058938;28;20215;-64
2021/01/29 02:01:33;;;;;;;15.60;9.18;;;2.00;99.90;;;;;;5063720;28;20187;-63
2021/01/29 02:03:59;;;;;;;15.65;9.57;;;2.00;99.90;;;;;;5058546;28;20649;-63
2021/01/29 02:06:26;;;;;;;16.33;9.95;;;2.00;99.90;;;;;;5060911;28;20274;-64
2021/01/29 02:08:54;;;;;;;17.10;10.20;;;1.90;99.90;;;;;;5064977;28;20278;-63
2021/01/29 02:11:21;;;;;;;16.17;9.68;;;1.90;99.90;;;;;;5054014;28;20724;-64
2021/01/29 02:13:47;;;;;;;14.65;10.02;;;2.00;99.90;;;;;;5034562;28;20279;-64
2021/01/29 02:16:20;;;;;;;14.48;9.95;;;2.00;99.90;;;;;;5065847;28;20181;-63
2021/01/29 02:19:03;;;;;;;16.52;11.00;;;2.00;99.90;;;;;;5057284;28;20214;-63
2021/01/29 02:21:51;;;;;;;14.85;10.43;;;2.00;99.90;;;;;;5051887;28;20191;-63
2021/01/29 02:24:34;;;;;;;14.65;10.75;;;2.00;99.90;;;;;;5065614;28;20238;-63
2021/01/29 02:27:40;;;;;;;14.13;10.50;;;2.00;99.90;;;;;;5064547;28;20188;-62
2021/01/29 02:30:43;;;;;;;19.23;11.07;;;1.90;99.90;;;;;;5058021;28;20216;-63
2021/01/29 02:33:28;;;;;;;16.70;10.75;;;2.00;99.90;;;;;;5063583;28;20223;-63
2021/01/29 02:36:30;;;;;;;16.23;11.05;;;2.00;99.90;;;;;;5071817;28;20523;-63
2021/01/29 02:39:14;;;;;;;17.08;10.35;;;2.00;99.90;;;;;;5050441;28;20311;-63
2021/01/29 02:42:07;;;;;;;16.27;9.80;;;2.00;99.90;;;;;;5035776;28;20184;-64
2021/01/29 02:44:54;;;;;;;16.80;11.32;;;1.90;99.90;;;;;;5047583;28;20203;-64
2021/01/29 02:47:25;;;;;;;16.70;10.05;;;1.90;99.90;;;;;;5053419;28;20177;-64
2021/01/29 02:50:32;;;;;;;18.02;11.05;;;1.90;99.90;;;;;;5068902;28;20687;-63
2021/01/29 02:53:20;;;;;;;19.40;10.98;;;1.90;99.90;;;;;;5006417;28;20706;-64
2021/01/29 02:55:54;;;;;;;16.75;11.30;;;2.00;99.90;;;;;;5061660;28;20238;-63
2021/01/29 02:58:35;;;;;;;16.40;10.85;;;2.00;99.90;;;;;;5047486;28;20188;-63
2021/01/29 03:01:09;;;;;;;18.88;11.52;;;2.00;99.90;;;;;;5052215;28;20263;-63
2021/01/29 03:04:02;;;;;;;19.50;10.20;;;2.00;99.90;;;;;;5049051;28;20199;-63
2021/01/29 03:06:44;;;;;;;15.85;10.65;;;2.10;99.90;;;;;;5050674;28;20200;-63
2021/01/29 03:09:33;;;;;;;15.88;10.48;;;2.10;99.90;;;;;;5044969;28;20196;-63
2021/01/29 03:12:12;;;;;;;15.88;10.38;;;2.00;99.90;;;;;;5060137;28;20209;-64
2021/01/29 03:14:45;;;;;;;15.50;10.35;;;2.00;99.90;;;;;;5050132;28;20212;-64
2021/01/29 03:17:44;;;;;;;16.05;11.52;;;2.00;99.90;;;;;;5047812;28;20180;-63
2021/01/29 03:20:46;;;;;;;14.75;9.88;;;2.00;99.90;;;;;;5054895;28;20239;-64
2021/01/29 03:23:18;;;;;;;12.80;9.13;;;1.90;99.90;;;;;;5044900;28;20213;-64
2021/01/29 03:25:51;;;;;;;15.25;10.02;;;1.90;99.90;;;;;;5056188;28;20202;-64
2021/01/29 03:28:22;;;;;;;14.48;9.30;;;1.90;99.90;;;;;;5064115;28;20197;-63
2021/01/29 03:30:49;;;;;;;16.67;10.18;;;1.90;99.90;;;;;;5069566;28;20558;-63
2021/01/29 03:33:18;;;;;;;14.90;10.05;;;1.90;99.90;;;;;;5048699;28;20216;-64
2021/01/29 03:35:58;;;;;;;15.88;10.40;;;1.90;99.90;;;;;;5069534;28;20234;-63
2021/01/29 03:38:43;;;;;;;14.55;9.32;;;1.90;99.90;;;;;;5060927;28;20223;-63
2021/01/29 03:41:26;;;;;;;18.27;11.18;;;1.80;99.90;;;;;;5060033;28;20182;-63
2021/01/29 03:44:00;;;;;;;17.95;10.85;;;1.80;99.90;;;;;;5055804;28;20570;-63
2021/01/29 03:46:37;;;;;;;19.30;11.48;;;1.80;99.90;;;;;;5053618;28;20168;-64
2021/01/29 03:49:17;;;;;;;16.35;10.00;;;1.80;99.90;;;;;;5050139;28;20913;-63
2021/01/29 03:52:01;;;;;;;20.95;11.48;;;1.80;99.90;;;;;;5050584;28;20985;-63
2021/01/29 03:54:50;;;;;;;14.68;9.95;;;1.90;99.90;;;;;;5047492;28;20267;-63
2021/01/29 03:57:37;;;;;;;16.55;10.52;;;1.90;99.90;;;;;;5054735;28;20189;-62
2021/01/29 04:00:09;;;;;;;17.73;11.68;;;1.90;99.90;;;;;;5056478;28;20185;-62
2021/01/29 04:02:54;;;;;;;18.50;10.75;;;1.90;99.90;;;;;;5038435;28;20188;-62
2021/01/29 04:05:26;;;;;;;16.92;10.68;;;1.90;99.90;;;;;;5066466;28;20550;-63
2021/01/29 04:07:56;;;;;;;18.08;11.13;;;1.90;99.90;;;;;;5058328;28;20276;-62
2021/01/29 04:10:27;;;;;;;16.23;11.07;;;1.90;99.90;;;;;;5044440;28;20210;-62
2021/01/29 04:13:20;;;;;;;17.95;10.93;;;1.90;99.90;;;;;;5044081;28;20205;-63
2021/01/29 04:15:49;;;;;;;18.80;11.07;;;1.90;99.90;;;;;;5056646;28;20191;-63
2021/01/29 04:18:29;;;;;;;18.13;11.80;;;1.90;99.90;;;;;;5057316;28;20617;-61
2021/01/29 04:20:55;;;;;;;19.67;11.88;;;1.80;99.90;;;;;;5037490;28;20184;-62
2021/01/29 04:23:34;;;;;;;20.97;11.60;;;1.80;99.90;;;;;;5048092;28;20243;-61
2021/01/29 04:26:16;;;;;;;18.60;11.00;;;1.80;99.90;;;;;;5031799;28;20235;-62
2021/01/29 04:28:47;;;;;;;18.48;11.38;;;1.80;99.90;;;;;;5035552;28;20179;-62
2021/01/29 04:31:15;;;;;;;16.55;10.23;;;1.80;99.90;;;;;;5049442;28;20188;-62
2021/01/29 04:33:47;;;;;;;16.35;10.45;;;1.80;99.90;;;;;;5049466;28;20216;-62
2021/01/29 04:36:15;;;;;;;19.58;12.48;;;1.80;99.90;;;;;;5061235;28;20509;-63
2021/01/29 04:38:52;;;;;;;19.23;12.00;;;1.80;99.90;;;;;;5032613;28;20234;-62
2021/01/29 04:41:31;;;;;;;19.92;11.57;;;1.80;99.90;;;;;;5069601;28;20279;-62
2021/01/29 04:44:24;;;;;;;16.63;10.82;;;1.80;99.90;;;;;;5058048;28;20581;-62
2021/01/29 04:47:11;;;;;;;19.92;12.45;;;1.80;99.90;;;;;;5060221;28;20196;-62
2021/01/29 04:49:49;;;;;;;19.20;11.95;;;1.80;99.90;;;;;;5047108;28;20218;-63
2021/01/29 04:52:36;;;;;;;19.67;11.48;;;1.90;99.90;;;;;;5059185;28;20294;-62
2021/01/29 04:55:50;;;;;;;19.10;11.25;;;1.90;99.90;;;;;;5052447;28;20242;-62
2021/01/29 04:58:23;;;;;;;16.95;11.35;;;1.90;99.90;;;;;;4958682;28;20241;-61
2021/01/29 05:01:01;;;;;;;16.90;10.88;;;1.80;99.90;;;;;;5056252;28;20188;-61
2021/01/29 05:04:04;;;;;;;18.60;11.43;;;1.80;99.90;;;;;;5059797;28;20653;-64
2021/01/29 05:06:39;;;;;;;18.40;11.75;;;1.80;99.90;;;;;;5047540;28;20723;-63
2021/01/29 05:09:20;;;;;;;19.77;12.23;;;1.80;99.90;;;;;;5044526;28;20191;-62
2021/01/29 05:12:00;;;;;;;20.05;11.90;;;1.80;99.90;;;;;;5055183;28;20192;-62
2021/01/29 05:15:03;;;;;;;19.17;12.75;;;1.80;99.90;;;;;;5046734;28;20298;-63
2021/01/29 05:18:00;;;;;;;19.38;12.13;;;1.80;99.90;;;;;;5031671;28;20212;-64
2021/01/29 05:20:47;;;;;;;17.23;10.80;;;1.80;99.90;;;;;;5045425;28;20841;-62
2021/01/29 05:23:31;;;;;;;15.73;10.65;;;1.80;99.90;;;;;;5046127;28;20248;-64
2021/01/29 05:26:47;;;;;;;20.63;12.65;;;1.80;99.90;;;;;;5043925;28;20797;-63
2021/01/29 05:29:34;;;;;;;19.27;12.25;;;1.80;99.90;;;;;;5005903;28;20203;-64
2021/01/29 05:32:37;;;;;;;20.52;11.52;;;1.70;99.90;;;;;;5045221;28;20230;-63
2021/01/29 05:35:22;;;;;;;23.00;12.75;;;1.80;99.90;;;;;;5038390;28;20188;-63
2021/01/29 05:37:59;;;;;;;20.95;16.20;;;1.70;99.90;;;;;;5053301;28;20202;-63
2021/01/29 05:40:47;;;;;;;19.55;11.88;;;1.70;99.90;;;;;;5034078;28;20249;-63
2021/01/29 05:43:34;;;;;;;19.30;11.68;;;1.60;99.90;;;;;;5044442;28;20180;-63
2021/01/29 05:46:37;;;;;;;18.88;11.80;;;1.70;99.90;;;;;;5068775;28;20184;-63
2021/01/29 05:49:20;;;;;;;18.10;12.77;;;1.70;99.90;;;;;;5064206;28;20634;-63
2021/01/29 05:51:55;;;;;;;22.95;12.05;;;1.70;99.90;;;;;;5064859;28;20249;-64
2021/01/29 05:55:01;;;;;;;16.10;10.95;;;1.70;99.90;;;;;;5064898;28;20186;-63
2021/01/29 05:57:38;;;;;;;20.23;12.05;;;1.60;99.90;;;;;;5036238;28;20326;-64
2021/01/29 06:00:25;;;;;;;22.52;11.60;;;1.60;99.90;;;;;;5061235;28;20414;-63
2021/01/29 06:03:19;;;;;;;16.27;10.57;;;1.60;99.90;;;;;;5039941;28;20266;-63
2021/01/29 06:06:03;;;;;;;20.65;12.57;;;1.50;99.90;;;;;;5061523;28;20240;-63
2021/01/29 06:08:57;;;;;;;19.48;12.10;;;1.60;99.90;;;;;;5065331;28;20180;-64
2021/01/29 06:11:47;;;;;;;17.67;9.90;;;1.50;99.90;;;;;;5058460;28;20175;-63
2021/01/29 06:14:40;;;;;;;23.67;12.23;;;1.50;99.90;;;;;;5072157;28;20204;-63
2021/01/29 06:17:32;;;;;;;18.05;12.02;;;1.50;99.90;;;;;;5059779;28;20192;-63
2021/01/29 06:20:27;;;;;;;21.10;11.52;;;1.50;99.90;;;;;;5024250;28;20206;-63
2021/01/29 06:23:14;;;;;;;15.55;10.60;;;1.40;99.90;;;;;;5056123;28;20310;-64
2021/01/29 06:26:01;;;;;;;21.67;12.93;;;1.50;99.90;;;;;;5057975;28;20192;-63
2021/01/29 06:28:50;;;;;;;16.25;10.57;;;1.50;99.90;;;;;;5062690;28;20195;-63
2021/01/29 06:31:21;;;;;;;19.20;11.52;;;1.60;99.90;;;;;;5046343;28;20238;-63
2021/01/29 06:34:24;;;;;;;19.58;11.77;;;1.60;99.90;;;;;;5065193;28;20224;-60
2021/01/29 06:37:54;;;;;;;19.90;11.45;;;1.50;99.90;;;;;;5041834;28;20182;-63
2021/01/29 06:40:31;;;;;;;19.40;11.57;;;1.50;99.90;;;;;;4922289;28;20353;-63
2021/01/29 06:43:17;;;;;;;20.00;11.30;;;1.60;99.90;;;;;;5027573;28;20214;-63
2021/01/29 06:45:49;;;;;;;17.83;11.07;;;1.70;99.90;;;;;;5051609;28;20192;-63
2021/01/29 06:48:24;;;;;;;18.15;11.60;;;1.60;99.90;;;;;;5061443;28;20195;-63
2021/01/29 06:51:33;;;;;;;20.42;11.98;;;1.70;99.90;;;;;;5047812;28;20179;-62
2021/01/29 06:54:50;;;;;;;19.27;11.60;;;1.70;99.90;;;;;;5051798;28;20187;-64
2021/01/29 06:57:30;;;;;;;19.17;11.68;;;1.70;99.90;;;;;;5006080;28;20289;-63
2021/01/29 07:00:01;;;;;;;19.02;11.10;;;1.60;99.90;;;;;;5063052;28;20194;-63
2021/01/29 07:02:49;;;;;;;20.98;10.85;;;1.60;99.90;;;;;;5060301;28;20194;-63
2021/01/29 07:05:30;;;;;;;19.60;10.90;;;1.60;99.90;;;;;;5039660;28;20211;-63
2021/01/29 07:08:27;;;;;;;17.35;10.13;;;1.70;99.90;;;;;;5068941;28;21014;-62
2021/01/29 07:11:05;;;;;;;14.55;9.70;;;1.70;99.90;;;;;;5014546;28;20219;-62
2021/01/29 07:14:05;;;;;;;14.93;9.95;;;1.70;99.90;;;;;;5060361;28;20205;-62
2021/01/29 07:16:57;;;;;;;23.05;13.70;;;1.70;99.90;;;;;;5044015;28;20666;-62
2021/01/29 07:19:34;;;;;;;18.08;11.70;;;1.80;99.90;;;;;;5061233;28;20184;-62
2021/01/29 07:22:15;;;;;;;17.15;10.82;;;1.80;99.90;;;;;;5070813;28;20202;-63
2021/01/29 07:24:58;;;;;;;15.32;9.88;;;1.70;99.90;;;;;;5062621;28;20184;-64
2021/01/29 07:28:05;;;;;;;14.55;9.82;;;1.80;99.90;;;;;;5050259;28;20287;-64
2021/01/29 07:30:55;;;;;;;16.05;10.10;;;1.80;99.90;;;;;;5039862;28;20211;-64
2021/01/29 07:33:45;;;;;;;15.75;9.95;;;1.80;99.90;;;;;;5039149;28;20287;-63
2021/01/29 07:36:10;;;;;;;16.02;10.38;;;1.80;99.90;;;;;;5048252;28;20191;-66
2021/01/29 07:39:13;;;;;;;16.17;10.93;;;1.80;99.90;;;;;;5048559;28;20759;-66
2021/01/29 07:42:13;;;;;;;13.45;9.40;;;1.80;99.90;;;;;;5060684;28;20230;-66
2021/01/29 07:44:51;;;;;;;14.88;9.90;;;1.80;99.90;;;;;;5061651;28;20262;-66
2021/01/29 07:47:44;;;;;;;12.85;9.30;;;1.90;99.90;;;;;;5053439;28;20176;-65
2021/01/29 07:50:34;;;;;;;15.10;9.05;;;1.90;99.90;;;;;;5048890;28;20559;-66
2021/01/29 07:53:26;;;;;;;15.05;10.07;;;2.00;99.90;;;;;;5049681;28;20227;-65
2021/01/29 07:56:03;;;;;;;13.32;9.32;;;2.00;99.90;;;;;;5036713;28;20181;-67
2021/01/29 07:58:53;;;;;;;13.88;9.02;;;2.00;99.60;;;;;;5047047;28;20182;-66
2021/01/29 08:01:34;;;;;;;11.65;8.10;;;2.00;98.40;;;;;;5049658;28;20185;-65
2021/01/29 08:04:46;;;;;;;12.63;8.43;;;2.10;97.00;;;;;;5055598;28;20176;-66
2021/01/29 08:07:22;;;;;;;13.05;9.10;;;2.20;95.30;;;;;;4995708;28;20526;-64
2021/01/29 08:09:54;;;;;;;11.40;8.30;;;2.30;93.20;;;;;;5054633;28;20179;-66
2021/01/29 08:12:21;;;;;;;12.70;9.25;;;2.30;92.70;;;;;;5058153;28;20201;-65
2021/01/29 08:15:01;;;;;;;13.88;9.13;;;2.40;91.30;;;;;;5054055;28;20215;-66
2021/01/29 08:18:10;;;;;;;15.10;9.18;;;2.30;86.90;;;;;;5055832;28;20563;-65
2021/01/29 08:20:51;;;;;;;11.10;8.40;;;2.40;84.20;;;;;;5061514;28;20252;-62
2021/01/29 08:23:31;;;;;;;11.85;8.82;;;2.30;77.60;;;;;;5054793;28;20644;-63
2021/01/29 08:25:59;;;;;;;14.15;9.63;;;2.20;80.70;;;;;;5052590;28;20239;-63
2021/01/29 08:28:36;;;;;;;12.68;9.13;;;2.20;89.80;;;;;;5048796;28;20197;-66
2021/01/29 08:31:34;;;;;;;12.70;9.05;;;2.20;90.60;;;;;;5040818;28;20666;-67
2021/01/29 08:34:47;;;;;;;12.75;8.43;;;2.20;91.70;;;;;;5050299;28;20227;-67
2021/01/29 08:37:44;;;;;;;13.35;9.13;;;2.20;92.70;;;;;;5021520;28;20217;-66
2021/01/29 08:40:48;;;;;;;14.95;9.23;;;2.10;94.30;;;;;;5048517;28;20316;-62
2021/01/29 08:43:31;;;;;;;14.68;8.65;;;2.10;95.20;;;;;;4975630;28;20244;-61
2021/01/29 08:46:14;;;;;;;18.05;11.02;;;2.00;97.60;;;;;;5050863;28;20199;-67
2021/01/29 08:49:07;;;;;;;11.60;8.15;;;2.00;99.90;;;;;;5038565;28;20185;-67
2021/01/29 08:51:33;;;;;;;16.13;11.18;;;1.90;99.90;;;;;;5052505;28;20244;-67
2021/01/29 08:54:16;;;;;;;15.47;10.60;;;1.90;99.90;;;;;;5049467;28;20208;-66
2021/01/29 08:56:44;;;;;;;15.45;10.48;;;1.90;99.90;;;;;;5037885;28;20191;-63
2021/01/29 08:59:18;;;;;;;14.95;10.23;;;1.90;99.90;;;;;;5055279;28;20233;-62
2021/01/29 09:02:01;;;;;;;15.15;9.98;;;2.00;99.90;;;;;;5057508;28;20266;-63
2021/01/29 09:04:49;;;;;;;15.35;10.32;;;2.00;99.90;;;;;;5050246;28;20181;-63
2021/01/29 09:07:20;;;;;;;13.68;10.07;;;1.90;99.90;;;;;;5061439;28;20179;-63
2021/01/29 09:09:47;;;;;;;15.13;9.30;;;1.90;99.90;;;;;;5053149;28;20211;-63
2021/01/29 09:12:27;;;;;;;17.48;11.13;;;1.90;99.90;;;;;;5064181;28;20294;-63
2021/01/29 09:15:31;;;;;;;13.15;9.40;;;1.90;99.90;;;;;;5055512;28;20175;-63
2021/01/29 09:18:21;;;;;;;16.05;9.50;;;1.90;99.90;;;;;;5008984;28;20244;-63
2021/01/29 09:21:01;;;;;;;19.20;11.15;;;1.90;99.90;;;;;;5034628;28;20508;-67
2021/01/29 09:23:33;;;;;;;13.18;9.45;;;1.90;99.90;;;;;;5048028;28;20183;-62
2021/01/29 09:26:22;;;;;;;14.38;9.35;;;1.90;99.90;;;;;;5050368;28;20230;-68
2021/01/29 09:28:57;;;;;;;15.50;9.93;;;1.90;99.90;;;;;;5050498;28;20276;-63
2021/01/29 09:31:32;;;;;;;12.23;9.48;;;1.90;99.90;;;;;;5047212;28;20188;-67
2021/01/29 09:34:12;;;;;;;16.17;9.90;;;1.90;99.90;;;;;;5053930;28;20294;-67
2021/01/29 09:36:47;;;;;;;12.35;8.63;;;1.90;99.90;;;;;;5052028;28;20184;-64
2021/01/29 09:39:22;;;;;;;11.75;8.38;;;1.80;99.90;;;;;;5055207;28;20231;-68
2021/01/29 09:42:05;;;;;;;13.95;8.80;;;1.80;99.90;;;;;;5053794;28;20200;-68
2021/01/29 09:44:43;;;;;;;14.43;8.85;;;1.80;99.90;;;;;;5052870;28;20176;-67
2021/01/29 09:47:14;;;;;;;13.07;8.70;;;1.70;99.90;;;;;;5060807;28;20235;-67
2021/01/29 09:49:41;;;;;;;14.60;9.93;;;1.80;99.90;;;;;;5066361;28;20211;-63
2021/01/29 09:52:51;;;;;;;13.07;8.55;;;1.70;99.90;;;;;;5063934;28;20279;-69
2021/01/29 09:55:29;;;;;;;11.93;8.32;;;1.70;99.90;;;;;;5044116;28;20200;-63
2021/01/29 09:58:20;;;;;;;11.52;7.68;;;1.60;99.90;;;;;;5061193;28;20237;-63
2021/01/29 10:01:05;;;;;;;13.95;8.75;;;1.60;99.90;;;;;;5051268;28;20189;-67
2021/01/29 10:04:05;;;;;;;14.25;9.02;;;1.60;99.90;;;;;;5055358;28;20549;-65
2021/01/29 10:06:48;;;;;;;10.95;7.97;;;1.60;99.90;;;;;;5070700;28;20181;-62
2021/01/29 10:09:25;;;;;;;11.00;7.55;;;1.60;99.90;;;;;;5048261;28;20237;-62
2021/01/29 10:12:24;;;;;;;10.70;7.72;;;1.60;99.90;;;;;;5070740;28;20201;-62
2021/01/29 10:15:18;;;;;;;11.52;8.38;;;1.50;99.90;;;;;;5056955;28;20188;-64
2021/01/29 10:18:05;;;;;;;12.40;8.75;;;1.50;99.90;;;;;;5050258;28;20196;-64
2021/01/29 10:20:35;;;;;;;13.02;8.73;;;1.40;99.90;;;;;;5056714;28;21031;-62
2021/01/29 10:23:23;;;;;;;12.15;8.35;;;1.40;99.90;;;;;;5058668;28;20174;-63
2021/01/29 10:26:22;;;;;;;12.02;7.75;;;1.40;99.90;;;;;;5070877;28;20506;-63
2021/01/29 10:29:10;;;;;;;9.98;8.10;;;1.50;99.90;;;;;;5056298;28;20186;-62
2021/01/29 10:31:59;;;;;;;11.65;8.07;;;1.40;99.90;;;;;;5065469;28;20540;-63
2021/01/29 10:34:28;;;;;;;12.43;8.32;;;1.40;99.90;;;;;;5067664;28;20199;-62
2021/01/29 10:37:18;;;;;;;13.77;8.32;;;1.40;99.90;;;;;;5038346;28;20257;-63
2021/01/29 10:39:53;;;;;;;10.90;8.10;;;1.40;99.90;;;;;;5066214;28;20230;-63
2021/01/29 10:42:26;;;;;;;13.43;8.50;;;1.40;99.90;;;;;;5071418;28;20183;-62
2021/01/29 10:44:54;;;;;;;13.10;9.00;;;1.30;99.90;;;;;;5046523;28;20969;-65
2021/01/29 10:47:34;;;;;;;10.60;8.52;;;1.40;99.90;;;;;;5071105;28;20179;-62
2021/01/29 10:50:12;;;;;;;11.52;7.32;;;1.40;99.90;;;;;;5070863;28;20533;-64
2021/01/29 10:53:00;;;;;;;11.30;8.18;;;1.40;99.90;;;;;;5060849;28;20291;-62
2021/01/29 10:55:53;;;;;;;11.25;7.80;;;1.40;99.90;;;;;;5056403;28;20185;-63
2021/01/29 10:58:37;;;;;;;11.32;8.13;;;1.40;99.90;;;;;;5035842;28;20826;-62
2021/01/29 11:01:10;;;;;;;11.80;8.10;;;1.40;99.90;;;;;;5065906;28;20181;-61
2021/01/29 11:04:06;;;;;;;11.82;8.20;;;1.40;99.90;;;;;;5062078;28;20237;-63
2021/01/29 11:06:44;;;;;;;12.40;7.50;;;1.40;99.90;;;;;;5039133;28;20521;-64
2021/01/29 11:09:28;;;;;;;10.27;7.70;;;1.50;99.90;;;;;;5054008;28;20187;-63
2021/01/29 11:12:08;;;;;;;8.40;6.72;;;1.50;99.90;;;;;;5038493;28;20176;-62
2021/01/29 11:14:42;;;;;;;11.30;7.90;;;1.50;99.90;;;;;;5065553;28;20188;-63
2021/01/29 11:17:28;;;;;;;12.32;7.35;;;1.50;99.90;;;;;;5070133;28;20179;-63
2021/01/29 11:19:54;;;;;;;10.52;6.95;;;1.40;99.90;;;;;;5062881;28;20192;-64
2021/01/29 11:22:51;;;;;;;10.55;7.45;;;1.40;99.90;;;;;;5070303;28;20186;-63
2021/01/29 11:25:32;;;;;;;9.73;7.13;;;1.40;99.90;;;;;;5061600;28;20557;-64
2021/01/29 11:28:07;;;;;;;12.18;7.90;;;1.40;99.90;;;;;;5063661;28;20237;-63
2021/01/29 11:31:09;;;;;;;9.32;7.63;;;1.40;99.90;;;;;;5059259;28;20288;-64
2021/01/29 11:33:39;;;;;;;8.52;6.95;;;1.40;99.90;;;;;;5036387;28;20311;-64
2021/01/29 11:36:26;;;;;;;8.68;7.00;;;1.30;99.90;;;;;;5050073;28;20190;-65
2021/01/29 11:39:07;;;;;;;9.30;7.65;;;1.40;99.90;;;;;;5048812;28;20249;-64
2021/01/29 11:41:54;;;;;;;8.63;7.45;;;1.30;99.90;;;;;;5062366;28;20241;-63
2021/01/29 11:44:34;;;;;;;12.07;8.38;;;1.30;99.90;;;;;;5070399;28;20229;-64
2021/01/29 11:47:21;;;;;;;10.68;7.75;;;1.40;99.90;;;;;;5053557;28;20231;-64
2021/01/29 11:49:57;;;;;;;8.90;7.32;;;1.30;99.90;;;;;;5069418;28;20214;-64
2021/01/29 11:52:32;;;;;;;10.23;7.60;;;1.30;99.90;;;;;;5058267;28;20333;-64
2021/01/29 11:55:16;;;;;;;11.20;7.10;;;1.30;99.90;;;;;;5054293;28;20285;-64
2021/01/29 11:57:52;;;;;;;9.15;6.95;;;1.30;99.90;;;;;;5044806;28;20179;-63
2021/01/29 12:00:24;;;;;;;11.65;8.15;;;1.30;99.90;;;;;;5046789;28;20232;-64
2021/01/29 12:03:20;;;;;;;9.82;7.10;;;1.30;99.90;;;;;;5067407;28;20190;-64
2021/01/29 12:06:01;;;;;;;11.30;6.70;;;1.30;99.90;;;;;;5037957;28;20255;-63
2021/01/29 12:08:55;;;;;;;13.20;7.57;;;1.30;99.90;;;;;;5037137;28;20265;-64
2021/01/29 12:11:32;;;;;;;11.98;7.50;;;1.30;99.90;;;;;;5048855;28;20182;-63
2021/01/29 12:14:27;;;;;;;8.35;6.47;;;1.20;99.90;;;;;;5051505;28;20218;-64
2021/01/29 12:16:57;;;;;;;8.95;6.90;;;1.30;99.90;;;;;;5064223;28;20175;-62
2021/01/29 12:19:29;;;;;;;8.38;6.97;;;1.30;99.90;;;;;;5030201;28;20194;-64
2021/01/29 12:22:43;;;;;;;7.70;5.90;;;1.30;99.90;;;;;;5054414;28;20253;-64
2021/01/29 12:25:25;;;;;;;9.90;6.45;;;1.30;99.90;;;;;;4956485;28;20909;-63
2021/01/29 12:28:12;;;;;;;9.90;6.82;;;1.30;99.90;;;;;;5036253;28;20197;-64
2021/01/29 12:30:46;;;;;;;8.65;6.50;;;1.40;99.90;;;;;;5047461;28;20533;-63
2021/01/29 12:33:14;;;;;;;9.45;6.15;;;1.40;99.90;;;;;;5048376;28;20215;-62
2021/01/29 12:35:42;;;;;;;9.45;6.75;;;1.50;99.90;;;;;;5025468;28;20200;-61
2021/01/29 12:38:35;;;;;;;8.18;6.03;;;1.50;99.90;;;;;;5040453;28;20192;-62
2021/01/29 12:41:35;;;;;;;8.10;5.80;;;1.50;99.90;;;;;;5043962;28;20184;-62
2021/01/29 12:44:32;;;;;;;7.95;5.90;;;1.50;99.90;;;;;;5037848;28;20184;-62
2021/01/29 12:47:03;;;;;;;11.70;6.70;;;1.50;99.90;;;;;;5042136;28;20241;-64
2021/01/29 12:49:51;;;;;;;6.90;5.45;;;1.50;99.90;;;;;;5030959;28;20172;-63
2021/01/29 12:52:25;;;;;;;6.70;5.07;;;1.50;99.90;;;;;;5036234;28;20204;-63
2021/01/29 12:55:17;;;;;;;7.63;5.70;;;1.40;99.90;;;;;;5039288;28;20176;-63
2021/01/29 12:57:56;;;;;;;7.93;6.30;;;1.40;99.90;;;;;;5029251;28;20211;-63
2021/01/29 13:00:32;;;;;;;9.20;6.35;;;1.40;99.90;;;;;;5035727;28;20181;-63
2021/01/29 13:03:12;;;;;;;8.50;5.47;;;1.40;99.90;;;;;;5029552;28;20178;-63
2021/01/29 13:05:48;;;;;;;7.65;5.80;;;1.40;99.90;;;;;;5033365;28;20185;-63
2021/01/29 13:08:35;;;;;;;9.35;6.43;;;1.40;99.90;;;;;;5017605;28;20186;-63
2021/01/29 13:11:19;;;;;;;7.25;5.50;;;1.40;99.90;;;;;;5025955;28;20238;-62
2021/01/29 13:14:01;;;;;;;9.93;7.22;;;1.40;99.90;;;;;;5048137;28;20221;-62
2021/01/29 13:16:45;;;;;;;7.82;5.53;;;1.40;99.90;;;;;;5065452;28;20180;-62
2021/01/29 13:19:39;;;;;;;7.80;5.50;;;1.50;99.90;;;;;;5047586;28;20175;-63
2021/01/29 13:22:20;;;;;;;7.32;5.32;;;1.60;99.90;;;;;;5041418;28;20352;-62
2021/01/29 13:25:08;;;;;;;8.43;5.50;;;1.50;99.90;;;;;;5054188;28;20538;-62
2021/01/29 13:27:38;;;;;;;7.00;5.32;;;1.50;99.90;;;;;;5047432;28;20598;-63
2021/01/29 13:30:20;;;;;;;8.75;6.50;;;1.50;99.90;;;;;;5067636;28;20183;-62
2021/01/29 13:32:47;;;;;;;6.50;5.28;;;1.50;99.90;;;;;;5061190;28;20239;-62
2021/01/29 13:35:19;;;;;;;6.97;5.55;;;1.50;99.90;;;;;;5048495;28;20185;-62
2021/01/29 13:37:45;;;;;;;8.85;6.50;;;1.60;99.90;;;;;;5049724;28;20539;-62
2021/01/29 13:40:27;;;;;;;8.47;6.33;;;1.70;99.90;;;;;;5052927;28;20306;-62
2021/01/29 13:42:55;;;;;;;8.93;6.30;;;1.80;99.90;;;;;;5063962;28;20646;-63
2021/01/29 13:45:26;;;;;;;7.00;5.55;;;1.80;99.90;;;;;;5050526;28;20192;-62
2021/01/29 13:48:09;;;;;;;8.05;5.70;;;1.80;99.90;;;;;;5050663;28;20205;-63
2021/01/29 13:50:39;;;;;;;7.38;5.85;;;1.90;99.90;;;;;;5056494;28;20665;-62
2021/01/29 13:53:12;;;;;;;8.27;5.65;;;1.80;99.90;;;;;;5032462;28;20207;-63